Weather History for Indianapolis, IN

Change the Weather History Date:

Sunday, March 30, 2014

  Actual Average (KEYE) Record (KEYE)
Temperature  
Mean Temperature 40 °F 48 °F  
Max Temperature 54 °F 57 °F 77 °F (2005)
Min Temperature 26 °F 39 °F 27 °F (2003)
Degree Days  
Heating Degree Days 26 17  
Month to date heating degree days 681  
Since 1 July heating degree days 4806  
Cooling Degree Days 0 0  
Month to date cooling degree days 0  
Year to date cooling degree days 0  
Moisture  
Dew Point 28 °F    
Average Humidity 68    
Maximum Humidity 90    
Minimum Humidity 37    
Precipitation  
Precipitation 0.00 in 0.14 in 0.85 in (2004)
Month to date precipitation 3.16  
Year to date precipitation 7.50  
Sea Level Pressure  
Sea Level Pressure 30.19 in    
Wind  
Wind Speed 5 mph (NW)    
Max Wind Speed 10 mph    
Max Gust Speed -    
Visibility 9 miles    
Events      
T = Trace of Precipitation, MM = Missing Value Source: NWS Daily Summary

Daily Weather History Graph

Daily Weather History Graph

Search for Another Location

Airport:

Trip Planner

Search our weather history database for the weather conditions in past years. The results will help you decide how hot, cold, wet, or windy it might be!

Date:

Astronomy

Mar. 30, 2014 Rise Set
Actual Time 7:32 AM EDT 8:07 PM EDT
Civil Twilight 7:04 AM EDT 8:34 PM EDT
Nautical Twilight 6:32 AM EDT 9:06 PM EDT
Astronomical Twilight 5:59 AM EDT 9:39 PM EDT
Moon 7:17 AM EDT (3/30) 8:19 PM EDT (3/30)
Length of Visible Light 13h 29m
Length of Day
12h 35m
Waning Crescent, 0% of the Moon is Illuminated
Mar 30
Waning Crescent
Mar 30
New
Apr 7
First Quarter
Apr 15
Full
Apr 22
Last Quarter

Hourly Weather History & Observations

Time (EDT) Temp. Windchill Dew Point Humidity Pressure Visibility Wind Dir Wind Speed Gust Speed Precip Events Conditions
12:15 AM 32.9 °F 25.3 °F 28.4 °F 84% 30.20 in 7.0 mi NNW 9.2 mph - N/A   Mostly Cloudy
12:35 AM 32.2 °F 23.8 °F 28.2 °F 85% 30.21 in 7.0 mi NNW 10.4 mph - N/A   Scattered Clouds
12:55 AM 32.0 °F 24.8 °F 27.9 °F 85% 30.21 in 7.0 mi NNW 8.1 mph - N/A   Clear
1:15 AM 31.6 °F 25.1 °F 27.5 °F 85% 30.21 in 7.0 mi NW 6.9 mph - N/A   Clear
1:35 AM 31.1 °F 23.7 °F 27.3 °F 86% 30.21 in 7.0 mi NNW 8.1 mph - N/A   Clear
2:15 AM 30.6 °F 23.1 °F 26.4 °F 85% 30.21 in 10.0 mi NNW 8.1 mph - N/A   Clear
2:35 AM 30.2 °F 23.4 °F 26.2 °F 85% 30.21 in 10.0 mi NNW 6.9 mph - N/A   Clear
2:55 AM 29.8 °F 23.0 °F 25.7 °F 85% 30.21 in 10.0 mi NNW 6.9 mph - N/A   Clear
3:15 AM 29.3 °F 22.3 °F 25.7 °F 86% 30.21 in 7.0 mi NNW 6.9 mph - N/A   Clear
3:35 AM 29.3 °F 21.5 °F 25.5 °F 86% 30.21 in 10.0 mi NNW 8.1 mph - N/A   Clear
3:55 AM 29.3 °F 21.5 °F 25.5 °F 86% 30.20 in 10.0 mi NNW 8.1 mph - N/A   Clear
4:15 AM 29.1 °F 22.1 °F 25.3 °F 86% 30.21 in 10.0 mi NW 6.9 mph - N/A   Clear
4:35 AM 28.8 °F 22.6 °F 25.2 °F 86% 30.21 in 7.0 mi NW 5.8 mph - N/A   Clear
4:55 AM 28.4 °F 21.2 °F 24.8 °F 86% 30.21 in 7.0 mi NW 6.9 mph - N/A   Clear
5:15 AM 28.4 °F 22.2 °F 24.8 °F 86% 30.21 in 7.0 mi NW 5.8 mph - N/A   Clear
5:35 AM 27.9 °F 21.5 °F 24.6 °F 88% 30.21 in 7.0 mi NW 5.8 mph - N/A   Clear
5:55 AM 27.9 °F 21.5 °F 24.6 °F 88% 30.21 in 7.0 mi NNW 5.8 mph - N/A   Clear
6:15 AM 27.5 °F 22.2 °F 24.3 °F 88% 30.21 in 5.0 mi NNW 4.6 mph - N/A   Clear
6:35 AM 26.8 °F 21.4 °F 23.9 °F 89% 30.22 in 5.0 mi NW 4.6 mph - N/A   Clear
6:55 AM 27.1 °F 21.8 °F 24.1 °F 88% 30.22 in 7.0 mi NW 4.6 mph - N/A   Clear
7:15 AM 26.6 °F 21.2 °F 23.5 °F 88% 30.23 in 5.0 mi NW 4.6 mph - N/A   Clear
7:35 AM 26.6 °F 22.6 °F 23.5 °F 88% 30.23 in 5.0 mi NNW 3.5 mph - N/A   Clear
7:55 AM 26.1 °F - 23.0 °F 88% 30.22 in 4.0 mi Calm Calm - N/A   Clear
8:15 AM 26.4 °F - 23.5 °F 89% 30.22 in 4.0 mi Calm Calm - N/A   Clear
8:35 AM 28.0 °F - 25.2 °F 89% 30.22 in 4.0 mi Calm Calm - N/A   Clear
8:55 AM 29.3 °F 24.3 °F 26.6 °F 90% 30.23 in 5.0 mi North 4.6 mph - N/A   Clear
9:15 AM 30.4 °F 25.6 °F 27.3 °F 88% 30.24 in 10.0 mi NW 4.6 mph - N/A   Clear
9:35 AM 32.0 °F 27.5 °F 28.2 °F 86% 30.24 in 10.0 mi NW 4.6 mph - N/A   Clear
9:55 AM 33.4 °F 28.1 °F 28.4 °F 82% 30.25 in 10.0 mi NNW 5.8 mph - N/A   Clear
10:15 AM 34.9 °F 30.8 °F 28.0 °F 76% 30.25 in 10.0 mi NNW 4.6 mph - N/A   Clear
10:35 AM 36.5 °F 31.8 °F 28.4 °F 72% 30.26 in 10.0 mi North 5.8 mph - N/A   Clear
10:55 AM 37.6 °F 33.1 °F 28.6 °F 70% 30.26 in 10.0 mi NNW 5.8 mph - N/A   Clear
11:15 AM 39.4 °F 37.2 °F 29.8 °F 69% 30.25 in 10.0 mi NNW 3.5 mph - N/A   Clear
11:35 AM 40.1 °F 36.9 °F 28.9 °F 64% 30.25 in 10.0 mi NNW 4.6 mph - N/A   Clear
11:55 AM 41.0 °F 39.0 °F 29.1 °F 63% 30.25 in 10.0 mi North 3.5 mph - N/A   Clear
12:15 PM 42.1 °F 39.2 °F 29.3 °F 61% 30.25 in 10.0 mi North 4.6 mph - N/A   Clear
12:35 PM 43.2 °F 40.5 °F 27.7 °F 54% 30.24 in 10.0 mi NNE 4.6 mph - N/A   Clear
12:55 PM 44.1 °F 40.1 °F 27.3 °F 52% 30.23 in 10.0 mi NNE 6.9 mph - N/A   Clear
1:15 PM 44.8 °F - 25.5 °F 47% 30.22 in 10.0 mi Calm Calm - N/A   Clear
1:35 PM 45.7 °F 44.4 °F 28.6 °F 51% 30.23 in 10.0 mi West 3.5 mph - N/A   Clear
1:55 PM 46.9 °F - 28.6 °F 49% 30.22 in 10.0 mi Calm Calm - N/A   Clear
2:15 PM 47.8 °F - 28.9 °F 48% 30.22 in 10.0 mi Calm Calm - N/A   Clear
2:35 PM 48.4 °F - 29.5 °F 48% 30.21 in 10.0 mi NNW 5.8 mph - N/A   Clear
2:55 PM 49.3 °F - 29.5 °F 46% 30.19 in 10.0 mi Calm Calm - N/A   Clear
3:15 PM 50.7 °F - 29.7 °F 44% 30.19 in 10.0 mi West 4.6 mph - N/A   Clear
3:35 PM 50.9 °F - 29.5 °F 44% 30.18 in 10.0 mi Calm Calm - N/A   Clear
3:55 PM 51.8 °F - 28.2 °F 40% 30.17 in 10.0 mi WNW 3.5 mph - N/A   Clear
4:15 PM 52.0 °F - 28.8 °F 41% 30.16 in 10.0 mi Calm Calm - N/A   Clear
4:35 PM 52.9 °F - 29.1 °F 40% 30.16 in 10.0 mi Calm Calm - N/A   Clear
4:55 PM 53.2 °F - 28.6 °F 39% 30.15 in 10.0 mi NW 3.5 mph - N/A   Clear
5:15 PM 53.4 °F - 28.2 °F 38% 30.15 in 10.0 mi West 8.1 mph - N/A   Clear
5:35 PM 53.6 °F - 28.8 °F 39% 30.14 in 10.0 mi West 3.5 mph - N/A   Clear
5:55 PM 53.6 °F - 28.0 °F 37% 30.14 in 10.0 mi Calm Calm - N/A   Clear
6:15 PM 53.8 °F - 27.9 °F 37% 30.14 in 10.0 mi SW 5.8 mph - N/A   Clear
6:35 PM 53.6 °F - 28.9 °F 39% 30.14 in 10.0 mi West 3.5 mph - N/A   Clear
6:55 PM 53.2 °F - 28.8 °F 39% 30.14 in 10.0 mi WSW 6.9 mph - N/A   Clear
7:15 PM 52.7 °F - 30.0 °F 42% 30.14 in 10.0 mi West 5.8 mph - N/A   Clear
7:35 PM 51.4 °F - 28.9 °F 42% 30.14 in 10.0 mi West 3.5 mph - N/A   Clear
7:55 PM 49.8 °F - 29.3 °F 45% 30.14 in 10.0 mi Calm Calm - N/A   Clear
8:15 PM 48.2 °F - 29.8 °F 49% 30.13 in 10.0 mi Calm Calm - N/A   Clear
8:35 PM 46.4 °F - 31.6 °F 56% 30.13 in 10.0 mi Calm Calm - N/A   Clear
8:55 PM 42.8 °F - 32.2 °F 66% 30.13 in 10.0 mi Calm Calm - N/A   Clear
9:15 PM 39.6 °F 37.4 °F 32.0 °F 74% 30.13 in 10.0 mi ESE 3.5 mph - N/A   Clear
9:35 PM 39.6 °F - 32.0 °F 74% 30.13 in 10.0 mi Calm Calm - N/A   Clear
9:55 PM 40.3 °F - 32.0 °F 72% 30.14 in 3.0 mi Calm Calm - N/A   Haze
10:15 PM 39.2 °F - 32.2 °F 76% 30.14 in 10.0 mi Calm Calm - N/A   Clear
10:35 PM 38.5 °F - 31.5 °F 76% 30.14 in 10.0 mi Calm Calm - N/A   Clear
10:55 PM 37.2 °F - 31.8 °F 81% 30.14 in 10.0 mi Calm Calm - N/A   Clear
11:15 PM 37.4 °F - 32.4 °F 82% 30.15 in 10.0 mi Calm Calm - N/A   Clear
11:35 PM 36.0 °F - 30.4 °F 80% 30.14 in 10.0 mi Calm Calm - N/A   Clear
11:55 PM 34.9 °F - 30.0 °F 82% 30.13 in 10.0 mi Calm Calm - N/A   Clear